createdAt,value
2023-11-06T03:22:30.703Z,8.80
2023-11-06T03:24:59.305Z,8.70
2023-11-06T03:27:34.281Z,8.70
2023-11-06T03:30:09.404Z,8.70
2023-11-06T03:32:45.016Z,8.70
2023-11-06T03:35:24.525Z,8.60
2023-11-06T03:37:53.102Z,8.70
2023-11-06T03:40:38.545Z,8.70
2023-11-06T03:43:09.945Z,8.70
2023-11-06T03:45:52.084Z,8.70
2023-11-06T03:48:32.163Z,8.70
2023-11-06T03:51:02.343Z,8.70
2023-11-06T03:53:33.377Z,8.70
2023-11-06T03:56:05.420Z,8.70
2023-11-06T03:58:38.679Z,8.70
2023-11-06T04:01:17.245Z,8.70
2023-11-06T04:03:49.275Z,8.80
2023-11-06T04:06:18.694Z,8.80
2023-11-06T04:08:47.167Z,8.80
2023-11-06T04:11:19.255Z,8.80
2023-11-06T04:13:47.785Z,8.80
2023-11-06T04:16:22.775Z,8.70
2023-11-06T04:18:51.570Z,8.70
2023-11-06T04:21:23.365Z,8.70
2023-11-06T04:23:57.622Z,8.70
2023-11-06T04:26:26.241Z,8.80
2023-11-06T04:29:00.215Z,8.80
2023-11-06T04:31:35.904Z,8.70
2023-11-06T04:34:05.109Z,8.70
2023-11-06T04:36:38.162Z,8.70
2023-11-06T04:39:18.725Z,8.70
2023-11-06T04:41:52.082Z,8.80
2023-11-06T04:44:23.687Z,8.80
2023-11-06T04:47:04.769Z,8.80
2023-11-06T04:49:33.672Z,8.70
2023-11-06T04:52:02.247Z,8.70
2023-11-06T04:54:31.039Z,8.80
2023-11-06T04:56:59.323Z,8.90
2023-11-06T04:59:32.833Z,8.90
2023-11-06T05:02:08.333Z,8.90
2023-11-06T05:04:37.015Z,8.90
2023-11-06T05:07:06.069Z,9.00
2023-11-06T05:09:37.140Z,9.00
2023-11-06T05:12:07.405Z,8.90
2023-11-06T05:14:36.053Z,8.90
2023-11-06T05:17:07.770Z,8.90
2023-11-06T05:19:39.258Z,8.90
2023-11-06T05:22:13.314Z,8.80
2023-11-06T05:24:46.195Z,8.80
2023-11-06T05:27:14.553Z,8.80
2023-11-06T05:59:56.019Z,8.70
2023-11-06T06:09:04.716Z,8.40
2023-11-06T06:11:37.458Z,8.30
2023-11-06T06:14:10.626Z,8.30
2023-11-06T06:16:57.296Z,8.30
2023-11-06T06:19:33.174Z,8.30
2023-11-06T06:22:01.425Z,8.30
2023-11-06T06:24:38.081Z,8.30
2023-11-06T06:27:06.674Z,8.20
2023-11-06T06:29:36.993Z,8.20
2023-11-06T06:32:07.174Z,8.10
2023-11-06T06:34:40.850Z,8.10
2023-11-06T06:37:10.573Z,8.10
2023-11-06T06:39:38.990Z,8.00
2023-11-06T06:42:07.774Z,8.10
2023-11-06T06:44:35.813Z,8.10
2023-11-06T06:47:09.737Z,8.00
2023-11-06T06:49:41.953Z,8.10
2023-11-06T06:52:14.409Z,8.10
2023-11-06T06:54:42.482Z,8.10
2023-11-06T06:57:10.587Z,8.10
2023-11-06T06:59:38.714Z,8.10
2023-11-06T07:02:06.825Z,8.10
2023-11-06T07:04:35.144Z,8.20
2023-11-06T07:07:04.792Z,8.20
2023-11-06T07:09:33.515Z,8.20
2023-11-06T07:12:02.206Z,8.20
2023-11-06T07:14:32.775Z,8.20
2023-11-06T07:17:06.266Z,8.20
2023-11-06T07:19:40.858Z,8.20
2023-11-06T07:22:10.833Z,8.20
2023-11-06T07:24:49.878Z,8.20
2023-11-06T07:27:18.974Z,8.40
2023-11-06T07:29:47.718Z,8.60
2023-11-06T07:32:19.519Z,8.70
2023-11-06T07:34:51.149Z,8.70
2023-11-06T07:37:26.821Z,8.70
2023-11-06T07:39:55.056Z,8.70
2023-11-06T07:42:32.558Z,8.70
2023-11-06T07:45:18.013Z,8.70
2023-11-06T07:48:14.750Z,8.70
2023-11-06T07:50:46.145Z,8.80
2023-11-06T07:53:16.309Z,8.80
2023-11-06T08:00:14.191Z,8.90
2023-11-06T08:03:36.587Z,9.00
2023-11-06T08:10:33.015Z,9.00
2023-11-06T08:16:55.458Z,9.20
2023-11-06T08:19:24.342Z,9.30
2023-11-06T08:21:55.575Z,9.40
2023-11-06T08:25:06.362Z,9.50
2023-11-06T08:31:12.494Z,9.40
2023-11-06T08:33:40.811Z,9.50
2023-11-06T08:36:11.170Z,9.60
2023-11-06T08:38:39.822Z,9.70
2023-11-06T08:41:10.680Z,9.80
2023-11-06T08:43:45.600Z,9.80
2023-11-06T08:46:18.771Z,9.90
2023-11-06T08:48:48.111Z,10.00
2023-11-06T08:51:17.018Z,10.10
2023-11-06T08:53:45.838Z,10.30
2023-11-06T08:56:21.383Z,10.50
2023-11-06T08:58:51.525Z,10.60
2023-11-06T09:01:20.054Z,10.60
2023-11-06T09:03:48.504Z,10.60
2023-11-06T09:06:17.030Z,10.70
2023-11-06T09:08:47.245Z,10.80
2023-11-06T09:16:16.256Z,11.10
2023-11-06T09:18:44.875Z,11.30
2023-11-06T09:21:15.135Z,11.30
2023-11-06T09:54:43.320Z,11.40
2023-11-06T09:57:15.366Z,11.40
2023-11-06T09:59:49.675Z,11.40
2023-11-06T10:02:20.306Z,11.50
2023-11-06T10:05:16.022Z,11.60
2023-11-06T10:07:55.847Z,11.90
2023-11-06T10:10:26.007Z,12.00
2023-11-06T10:13:12.428Z,11.90
2023-11-06T10:15:44.523Z,11.90
2023-11-06T10:18:16.060Z,12.10
2023-11-06T10:20:46.152Z,12.10
2023-11-06T10:23:27.783Z,12.00
2023-11-06T10:26:24.414Z,11.60
2023-11-06T10:29:20.288Z,11.40
2023-11-06T10:31:52.751Z,11.10
2023-11-06T10:34:30.101Z,11.00
2023-11-06T10:37:06.708Z,11.00
2023-11-06T10:39:35.844Z,11.10
2023-11-06T10:42:05.180Z,11.10
2023-11-06T10:44:35.230Z,11.20
2023-11-06T10:47:10.856Z,11.20
2023-11-06T10:49:46.561Z,11.30
2023-11-06T10:52:19.673Z,11.30
2023-11-06T10:55:00.260Z,11.40
2023-11-06T10:57:34.555Z,11.60
2023-11-06T11:00:08.568Z,11.90
2023-11-06T11:02:45.577Z,12.20
2023-11-06T11:05:16.442Z,12.30
2023-11-06T11:07:50.520Z,12.50
2023-11-06T11:28:29.382Z,12.80
2023-11-06T11:31:29.663Z,12.60
2023-11-06T11:44:43.499Z,12.10
2023-11-06T11:47:14.563Z,12.00
2023-11-06T16:06:04.500Z,10.70
2023-11-06T16:12:28.182Z,10.80
2023-11-06T16:15:46.098Z,10.70
2023-11-06T16:18:42.975Z,10.70
2023-11-06T16:21:25.707Z,10.70
2023-11-06T16:23:59.751Z,10.70
2023-11-06T16:26:45.153Z,10.70
2023-11-06T16:29:23.800Z,10.80
2023-11-06T16:31:52.366Z,10.80
2023-11-06T16:34:35.420Z,10.80
2023-11-06T16:37:14.064Z,10.90
2023-11-06T16:39:43.586Z,11.00
2023-11-06T16:42:18.060Z,11.00
2023-11-06T16:45:05.082Z,11.20
2023-11-06T16:47:57.044Z,10.80
2023-11-06T16:50:29.762Z,10.80
2023-11-06T16:52:58.157Z,10.60
2023-11-06T16:55:27.719Z,10.60
2023-11-06T16:57:56.733Z,10.50
2023-11-06T17:00:29.552Z,10.40
2023-11-06T17:02:57.997Z,10.30
2023-11-06T17:05:26.956Z,10.40
2023-11-06T17:07:55.683Z,10.40
2023-11-06T17:10:26.308Z,10.30
2023-11-06T17:12:55.594Z,10.40
2023-11-06T17:15:24.344Z,10.40
2023-11-06T17:17:53.863Z,10.40
2023-11-06T17:20:41.245Z,10.40
2023-11-06T17:23:19.230Z,10.30
2023-11-06T17:25:56.664Z,10.30
2023-11-06T17:33:05.236Z,10.20
2023-11-06T17:42:46.617Z,10.10
2023-11-06T17:45:32.734Z,10.00
2023-11-06T17:54:34.149Z,9.70
2023-11-06T17:57:23.308Z,9.70
2023-11-06T18:42:02.602Z,9.20
2023-11-06T18:48:19.341Z,9.30
2023-11-06T18:51:31.436Z,9.30
2023-11-06T18:54:07.285Z,9.30
2023-11-06T19:24:19.057Z,9.00
2023-11-06T19:55:48.991Z,8.70
2023-11-06T20:05:43.943Z,8.90
2023-11-06T20:19:52.842Z,8.90
2023-11-06T20:48:45.167Z,8.70
2023-11-06T20:54:16.986Z,8.70
2023-11-06T21:08:31.146Z,8.50
2023-11-06T21:10:59.491Z,8.50
2023-11-06T21:13:28.051Z,8.50
2023-11-06T21:15:56.305Z,8.40
2023-11-06T21:18:25.046Z,8.40
2023-11-06T21:21:10.846Z,8.30
2023-11-06T21:23:40.749Z,8.20
2023-11-06T21:26:10.620Z,8.10
2023-11-06T21:28:46.418Z,8.00
2023-11-06T21:31:17.726Z,7.90
2023-11-06T21:33:48.040Z,7.80
2023-11-06T21:36:16.535Z,7.80
2023-11-06T21:38:46.956Z,7.70
2023-11-06T21:41:15.264Z,7.60
2023-11-06T21:43:43.865Z,7.50
2023-11-06T21:46:12.275Z,7.50
2023-11-06T21:48:41.187Z,7.40
2023-11-06T21:51:11.072Z,7.40
2023-11-06T21:53:39.434Z,7.40
2023-11-06T21:56:10.745Z,7.40
2023-11-06T21:58:39.213Z,7.40
2023-11-06T22:01:08.071Z,7.30
2023-11-06T22:03:36.303Z,7.30
2023-11-06T22:06:04.721Z,7.20
2023-11-06T22:08:32.970Z,7.20
2023-11-06T22:11:01.224Z,7.10
2023-11-06T22:13:30.981Z,7.00
2023-11-06T22:16:01.623Z,7.00
2023-11-06T22:18:30.160Z,6.90
2023-11-06T22:20:58.714Z,6.90
2023-11-06T22:23:27.130Z,6.80
2023-11-06T22:25:55.756Z,6.80
2023-11-06T22:28:29.060Z,6.70
2023-11-06T22:31:03.440Z,6.60
2023-11-06T22:33:37.153Z,6.60
2023-11-06T22:36:06.424Z,6.70
2023-11-06T22:38:36.532Z,6.80
2023-11-06T22:41:05.220Z,6.80
2023-11-06T22:43:43.692Z,6.80
2023-11-06T22:46:13.470Z,6.80
2023-11-06T22:48:44.583Z,6.90
2023-11-06T22:51:20.983Z,6.90
2023-11-06T22:53:55.705Z,6.90
2023-11-06T22:56:27.621Z,6.70
2023-11-06T22:58:56.346Z,6.70
2023-11-06T23:01:26.752Z,6.70
2023-11-06T23:03:55.146Z,6.70
2023-11-06T23:06:23.534Z,6.70
2023-11-06T23:08:51.909Z,6.70
2023-11-06T23:11:20.107Z,6.90
2023-11-06T23:13:48.427Z,7.00
2023-11-06T23:16:16.754Z,7.20
2023-11-06T23:18:47.679Z,7.30
2023-11-06T23:21:16.396Z,7.40
2023-11-06T23:23:44.855Z,7.40
2023-11-06T23:26:13.554Z,7.50
2023-11-06T23:28:46.873Z,7.50
2023-11-06T23:31:15.061Z,7.50
2023-11-06T23:33:43.383Z,7.30
2023-11-06T23:36:13.397Z,7.40
2023-11-06T23:38:42.207Z,7.30
2023-11-06T23:41:10.529Z,7.40
2023-11-06T23:43:38.712Z,7.40
2023-11-06T23:46:08.199Z,7.40
2023-11-06T23:48:37.207Z,7.40
2023-11-06T23:51:06.021Z,7.30
2023-11-06T23:53:35.580Z,7.20
2023-11-06T23:56:03.699Z,7.40
2023-11-06T23:58:31.847Z,7.40
